createdAt,value
2022-12-14T00:01:54.440Z,29.30
2022-12-14T00:04:21.467Z,28.67
2022-12-14T00:06:48.764Z,26.85
2022-12-14T00:09:16.068Z,26.65
2022-12-14T00:11:45.274Z,27.83
2022-12-14T00:14:12.279Z,27.15
2022-12-14T00:16:39.477Z,26.67
2022-12-14T00:19:06.609Z,24.80
2022-12-14T00:21:33.933Z,27.27
2022-12-14T00:24:01.069Z,26.60
2022-12-14T00:26:32.723Z,26.60
2022-12-14T00:29:01.996Z,26.15
2022-12-14T00:31:31.351Z,27.33
2022-12-14T00:36:46.889Z,27.65
2022-12-14T00:39:13.897Z,24.55
2022-12-14T00:41:40.980Z,26.48
2022-12-14T00:44:08.076Z,25.55
2022-12-14T00:46:35.152Z,26.13
2022-12-14T00:49:02.187Z,24.88
2022-12-14T00:51:31.680Z,25.52
2022-12-14T00:53:58.692Z,25.88
2022-12-14T00:56:28.206Z,24.98
2022-12-14T00:58:55.274Z,26.25
2022-12-14T01:01:25.991Z,24.23
2022-12-14T01:04:13.202Z,24.92
2022-12-14T01:06:40.306Z,23.88
2022-12-14T01:09:07.437Z,23.35
2022-12-14T01:11:34.528Z,24.77
2022-12-14T01:14:03.017Z,25.08
2022-12-14T01:16:30.278Z,23.13
2022-12-14T01:19:00.777Z,24.60
2022-12-14T01:21:28.392Z,24.58
2022-12-14T01:23:59.542Z,24.08
2022-12-14T01:26:29.003Z,25.90
2022-12-14T01:28:58.683Z,23.63
2022-12-14T01:31:32.810Z,23.70
2022-12-14T01:34:00.437Z,23.23
2022-12-14T01:36:33.804Z,24.45
2022-12-14T01:39:13.749Z,25.30
2022-12-14T01:41:47.487Z,24.40
2022-12-14T01:44:17.537Z,24.60
2022-12-14T01:47:12.382Z,27.83
2022-12-14T01:50:16.685Z,26.55
2022-12-14T01:52:47.915Z,29.70
2022-12-14T01:55:48.971Z,29.83
2022-12-14T01:58:20.182Z,29.70
2022-12-14T02:00:47.456Z,30.15
2022-12-14T02:03:41.502Z,31.23
2022-12-14T02:06:40.212Z,30.10
2022-12-14T02:09:15.356Z,29.08
2022-12-14T02:12:09.124Z,30.30
2022-12-14T02:14:36.437Z,28.63
2022-12-14T02:17:04.687Z,28.63
2022-12-14T02:19:31.738Z,28.90
2022-12-14T02:22:33.749Z,28.15
2022-12-14T02:25:31.779Z,25.70
2022-12-14T02:28:10.989Z,27.05
2022-12-14T02:30:41.488Z,26.20
2022-12-14T02:33:35.839Z,26.77
2022-12-14T02:36:13.540Z,26.75
2022-12-14T02:39:15.859Z,27.38
2022-12-14T02:41:55.229Z,27.33
2022-12-14T02:44:55.470Z,27.65
2022-12-14T02:47:37.500Z,28.30
2022-12-14T02:52:54.108Z,26.85
2022-12-14T02:55:37.433Z,26.88
2022-12-14T02:58:27.128Z,25.88
2022-12-14T03:00:56.193Z,27.05
2022-12-14T03:03:24.159Z,26.30
2022-12-14T03:06:04.082Z,28.95
2022-12-14T03:08:35.947Z,27.10
2022-12-14T03:14:01.114Z,28.70
2022-12-14T03:16:36.310Z,27.38
2022-12-14T03:19:18.664Z,28.73
2022-12-14T03:21:52.833Z,27.88
2022-12-14T03:24:39.342Z,28.90
2022-12-14T03:27:33.777Z,29.52
2022-12-14T03:30:10.796Z,28.60
2022-12-14T03:33:08.154Z,28.35
2022-12-14T03:35:46.200Z,29.05
2022-12-14T03:41:36.382Z,28.70
2022-12-14T03:44:23.793Z,28.17
2022-12-14T03:46:58.506Z,28.17
2022-12-14T03:50:00.821Z,32.15
2022-12-14T03:52:36.332Z,27.52
2022-12-14T03:55:32.773Z,28.02
2022-12-14T03:58:43.138Z,25.75
2022-12-14T04:01:35.391Z,25.35
2022-12-14T04:07:44.064Z,23.08
2022-12-14T04:10:43.568Z,23.50
2022-12-14T04:13:40.049Z,23.92
2022-12-14T04:16:33.430Z,24.27
2022-12-14T04:19:06.905Z,23.58
2022-12-14T04:22:18.246Z,23.00
2022-12-14T04:25:13.730Z,26.77
2022-12-14T04:28:34.555Z,26.58
2022-12-14T04:31:08.297Z,23.98
2022-12-14T04:33:47.000Z,25.65
2022-12-14T04:36:32.822Z,23.63
2022-12-14T04:39:08.197Z,26.08
2022-12-14T04:41:41.713Z,24.85
2022-12-14T04:44:30.695Z,29.27
2022-12-14T04:47:01.499Z,35.63
2022-12-14T04:49:41.703Z,29.10
2022-12-14T04:52:34.705Z,31.80
2022-12-14T04:55:08.602Z,31.42
2022-12-14T04:58:26.153Z,35.28
2022-12-14T05:01:33.882Z,34.97
2022-12-14T05:04:10.985Z,33.97
2022-12-14T05:07:04.116Z,35.80
2022-12-14T05:10:03.710Z,24.35
2022-12-14T05:12:52.572Z,27.33
2022-12-14T05:15:30.726Z,30.80
2022-12-14T05:18:05.553Z,28.95
2022-12-14T05:20:32.927Z,30.30
2022-12-14T05:23:00.038Z,28.60
2022-12-14T05:25:27.172Z,29.02
2022-12-14T05:27:54.233Z,29.45
2022-12-14T05:30:21.386Z,27.85
2022-12-14T05:32:48.593Z,31.63
2022-12-14T05:35:18.623Z,33.03
2022-12-14T05:37:45.781Z,29.90
2022-12-14T05:40:17.288Z,29.45
2022-12-14T05:42:48.602Z,26.02
2022-12-14T05:45:18.063Z,29.30
2022-12-14T05:47:45.296Z,28.13
2022-12-14T05:50:12.410Z,31.77
2022-12-14T05:52:40.030Z,31.45
2022-12-14T05:55:07.840Z,34.03
2022-12-14T05:57:34.847Z,32.53
2022-12-14T06:00:02.445Z,31.33
2022-12-14T06:02:29.553Z,34.53
2022-12-14T06:04:56.929Z,28.30
2022-12-14T06:07:27.702Z,29.20
2022-12-14T06:10:01.674Z,28.90
2022-12-14T06:12:28.754Z,27.08
2022-12-14T06:14:58.362Z,25.73
2022-12-14T06:17:25.425Z,26.50
2022-12-14T06:19:52.610Z,27.90
2022-12-14T06:22:21.453Z,29.23
2022-12-14T06:24:48.517Z,25.67
2022-12-14T06:27:15.618Z,25.00
2022-12-14T06:29:42.772Z,25.70
2022-12-14T06:32:09.754Z,24.75
2022-12-14T06:34:40.655Z,24.27
2022-12-14T06:37:09.581Z,24.10
2022-12-14T06:39:36.706Z,23.85
2022-12-14T06:42:06.534Z,25.63
2022-12-14T06:44:33.532Z,22.73
2022-12-14T06:47:00.756Z,29.77
2022-12-14T06:49:28.020Z,29.75
2022-12-14T06:51:55.091Z,27.73
2022-12-14T06:54:24.669Z,27.13
2022-12-14T06:56:51.885Z,23.75
2022-12-14T06:59:19.095Z,23.52
2022-12-14T07:01:46.636Z,24.23
2022-12-14T07:04:18.818Z,28.33
2022-12-14T07:06:45.865Z,25.80
2022-12-14T07:09:14.342Z,24.00
2022-12-14T07:11:42.003Z,23.40
2022-12-14T07:14:16.211Z,22.17
2022-12-14T07:16:47.746Z,24.48
2022-12-14T07:21:42.611Z,23.52
2022-12-14T07:24:12.124Z,23.45
2022-12-14T07:26:39.219Z,24.15
2022-12-14T07:29:06.730Z,21.75
2022-12-14T07:31:33.892Z,23.02
2022-12-14T07:34:01.005Z,19.73
2022-12-14T07:36:30.314Z,15.63
2022-12-14T07:38:59.996Z,16.48
2022-12-14T07:41:31.255Z,19.52
2022-12-14T07:44:03.973Z,18.02
2022-12-14T07:46:32.534Z,19.05
2022-12-14T07:49:04.240Z,18.52
2022-12-14T07:51:44.328Z,19.40
2022-12-14T07:54:13.440Z,18.67
2022-12-14T07:56:43.748Z,19.75
2022-12-14T07:59:17.239Z,18.75
2022-12-14T08:01:44.880Z,18.83
2022-12-14T08:04:16.917Z,16.98
2022-12-14T08:06:44.595Z,16.63
2022-12-14T08:09:12.291Z,17.83
2022-12-14T08:11:40.281Z,17.63
2022-12-14T08:14:14.083Z,18.95
2022-12-14T08:16:41.136Z,19.63
2022-12-14T08:19:08.179Z,16.90
2022-12-14T08:21:35.502Z,19.20
2022-12-14T08:24:02.601Z,19.13
2022-12-14T08:26:35.148Z,16.95
2022-12-14T08:29:04.456Z,18.27
2022-12-14T08:31:33.033Z,17.52
2022-12-14T08:34:02.672Z,18.55
2022-12-14T08:36:34.077Z,17.25
2022-12-14T08:39:04.744Z,17.00
2022-12-14T08:41:32.519Z,16.05
2022-12-14T08:44:01.590Z,17.27
2022-12-14T08:46:34.850Z,15.70
2022-12-14T08:49:02.045Z,15.27
2022-12-14T08:51:29.645Z,18.25
2022-12-14T08:53:58.360Z,18.13
2022-12-14T08:56:27.972Z,15.20
2022-12-14T08:58:56.849Z,16.88
2022-12-14T09:01:33.009Z,15.98
2022-12-14T09:04:08.205Z,16.15
2022-12-14T09:06:38.517Z,15.57
2022-12-14T09:09:13.590Z,16.02
2022-12-14T09:11:45.847Z,15.32
2022-12-14T09:14:15.473Z,14.63
2022-12-14T09:16:42.742Z,16.17
2022-12-14T09:19:17.458Z,18.05
2022-12-14T09:21:44.531Z,20.08
2022-12-14T09:24:12.046Z,17.58
2022-12-14T09:26:39.183Z,15.90
2022-12-14T09:29:06.269Z,16.33
2022-12-14T09:31:35.573Z,18.50
2022-12-14T09:34:04.758Z,17.30
2022-12-14T09:36:34.225Z,23.27
2022-12-14T09:39:01.843Z,19.45
2022-12-14T09:41:43.637Z,21.70
2022-12-14T09:44:18.140Z,23.60
2022-12-14T09:47:13.847Z,25.15
2022-12-14T09:49:55.394Z,30.20
2022-12-14T09:52:51.213Z,19.40
2022-12-14T09:55:37.260Z,26.45
2022-12-14T09:58:24.346Z,25.75
2022-12-14T10:01:24.544Z,28.90
2022-12-14T10:04:27.221Z,22.73
2022-12-14T10:07:02.666Z,23.08
2022-12-14T10:10:01.195Z,21.77
2022-12-14T10:13:29.190Z,24.85
2022-12-14T10:16:22.767Z,23.05
2022-12-14T10:19:14.819Z,26.02
2022-12-14T10:22:09.193Z,27.80
2022-12-14T10:24:49.197Z,29.08
2022-12-14T10:27:47.646Z,30.23
2022-12-14T10:30:23.583Z,31.60
2022-12-14T10:33:13.569Z,29.42
2022-12-14T10:35:54.211Z,27.65
2022-12-14T10:39:01.963Z,27.48
2022-12-14T10:41:55.191Z,28.33
2022-12-14T10:44:34.021Z,31.92
2022-12-14T10:47:52.795Z,31.65
2022-12-14T10:51:02.086Z,29.98
2022-12-14T10:53:44.023Z,27.48
2022-12-14T10:56:21.114Z,31.20
2022-12-14T10:59:16.558Z,30.17
2022-12-14T11:01:50.093Z,27.52
2022-12-14T11:04:48.630Z,27.63
2022-12-14T11:07:19.427Z,27.80
2022-12-14T11:09:47.169Z,28.60
2022-12-14T11:12:14.175Z,27.08
2022-12-14T11:15:23.391Z,27.70
2022-12-14T11:18:20.211Z,25.33
2022-12-14T11:21:06.283Z,23.08
2022-12-14T11:23:45.306Z,26.80
2022-12-14T11:26:43.181Z,27.25
2022-12-14T11:29:35.309Z,26.45
2022-12-14T11:32:03.559Z,24.38
2022-12-14T11:34:34.752Z,23.65
2022-12-14T11:37:21.549Z,24.30
2022-12-14T11:39:59.044Z,24.63
2022-12-14T11:42:26.843Z,24.70
2022-12-14T11:44:55.212Z,27.10
2022-12-14T11:47:26.666Z,28.33
2022-12-14T11:50:00.501Z,23.55
2022-12-14T11:52:45.033Z,27.00
2022-12-14T11:55:26.820Z,24.10
2022-12-14T11:58:03.213Z,26.38
2022-12-14T12:00:51.070Z,26.35
2022-12-14T12:03:51.693Z,21.40
2022-12-14T12:06:25.754Z,22.90
2022-12-14T12:09:02.628Z,26.40
2022-12-14T12:11:35.133Z,25.90
2022-12-14T12:14:39.081Z,24.48
2022-12-14T12:17:42.532Z,29.55
2022-12-14T12:20:28.295Z,25.75
2022-12-14T12:23:17.890Z,24.80
2022-12-14T12:25:48.299Z,28.35
2022-12-14T12:28:32.229Z,29.75
2022-12-14T12:31:16.956Z,29.55
2022-12-14T12:33:59.509Z,30.23
2022-12-14T12:36:27.145Z,29.27
2022-12-14T12:39:19.162Z,29.20
2022-12-14T12:42:19.811Z,25.38
2022-12-14T12:45:03.264Z,27.30
2022-12-14T12:47:47.760Z,31.65
2022-12-14T12:50:20.318Z,31.90
2022-12-14T12:53:18.092Z,28.85
2022-12-14T12:55:53.708Z,31.13
2022-12-14T12:58:30.246Z,28.92
2022-12-14T13:01:07.598Z,22.13
2022-12-14T13:03:45.860Z,28.73
2022-12-14T13:06:42.566Z,28.63
2022-12-14T13:09:34.103Z,29.23
2022-12-14T13:12:25.721Z,25.87
2022-12-14T13:14:57.206Z,28.10
2022-12-14T13:18:02.616Z,25.02
2022-12-14T13:20:33.621Z,28.10
2022-12-14T13:23:36.034Z,32.30
2022-12-14T13:27:02.965Z,32.03
2022-12-14T13:30:00.417Z,30.88
2022-12-14T13:32:59.291Z,29.60
2022-12-14T13:36:09.883Z,29.63
2022-12-14T13:38:57.857Z,28.63
2022-12-14T13:42:11.578Z,28.40
2022-12-14T13:45:05.782Z,31.25
2022-12-14T13:47:44.795Z,30.83
2022-12-14T13:50:36.279Z,32.13
2022-12-14T13:55:56.262Z,31.20
2022-12-14T13:58:24.306Z,33.70
2022-12-14T14:00:53.218Z,34.83
2022-12-14T14:03:45.075Z,34.85
2022-12-14T14:06:12.219Z,32.53
2022-12-14T14:08:44.682Z,29.83
2022-12-14T14:11:39.670Z,28.45
2022-12-14T14:14:34.436Z,27.35
2022-12-14T14:17:31.965Z,30.77
2022-12-14T14:20:00.047Z,26.23
2022-12-14T14:22:29.841Z,30.95
2022-12-14T14:25:37.802Z,29.35
2022-12-14T14:28:05.170Z,28.38
2022-12-14T14:30:48.739Z,34.55
2022-12-14T14:33:55.350Z,35.30
2022-12-14T14:36:33.484Z,31.15
2022-12-14T14:39:10.687Z,33.88
2022-12-14T14:41:52.779Z,33.08
2022-12-14T14:44:58.286Z,32.50
2022-12-14T14:47:31.148Z,29.75
2022-12-14T14:50:15.964Z,32.15
2022-12-14T14:52:42.852Z,39.83
2022-12-14T14:58:25.667Z,46.85
2022-12-14T15:01:03.954Z,41.53
2022-12-14T15:04:00.500Z,56.35
2022-12-14T15:06:40.496Z,60.75
2022-12-14T15:09:13.329Z,45.22
2022-12-14T15:11:50.581Z,37.00
2022-12-14T15:14:35.011Z,41.85
2022-12-14T15:17:13.312Z,33.38
2022-12-14T15:19:48.818Z,34.83
2022-12-14T15:22:41.735Z,32.72
2022-12-14T15:25:28.322Z,41.22
2022-12-14T15:27:59.938Z,35.33
2022-12-14T15:30:31.518Z,33.47
2022-12-14T15:33:07.082Z,41.22
2022-12-14T15:35:40.180Z,55.60
2022-12-14T15:38:31.535Z,57.58
2022-12-14T15:41:15.786Z,48.00
2022-12-14T15:43:50.250Z,47.30
2022-12-14T15:46:26.913Z,55.08
2022-12-14T15:49:03.933Z,42.95
2022-12-14T15:51:44.356Z,38.08
2022-12-14T15:54:19.956Z,39.10
2022-12-14T15:56:58.881Z,38.03
2022-12-14T15:59:34.530Z,34.50
2022-12-14T16:02:58.592Z,37.42
2022-12-14T16:05:26.304Z,42.35
2022-12-14T16:07:57.397Z,41.63
2022-12-14T16:10:33.380Z,31.10
2022-12-14T16:13:22.402Z,41.35
2022-12-14T16:15:52.785Z,45.42
2022-12-14T16:18:22.939Z,40.17
2022-12-14T16:21:19.676Z,36.40
2022-12-14T16:23:50.230Z,44.13
2022-12-14T16:26:43.970Z,37.13
2022-12-14T16:29:29.852Z,36.22
2022-12-14T16:32:09.503Z,44.55
2022-12-14T16:34:41.811Z,42.13
2022-12-14T16:37:34.088Z,38.30
2022-12-14T16:40:01.645Z,35.20
2022-12-14T16:42:35.059Z,36.33
2022-12-14T16:45:02.311Z,34.70
2022-12-14T16:47:35.297Z,39.50
2022-12-14T16:50:08.269Z,45.65
2022-12-14T16:52:36.922Z,39.97
2022-12-14T16:55:20.587Z,46.30
2022-12-14T16:58:00.964Z,48.22
2022-12-14T17:00:35.029Z,44.20
2022-12-14T17:03:19.848Z,50.55
2022-12-14T17:05:57.493Z,47.72
2022-12-14T17:08:25.045Z,47.95
2022-12-14T17:10:55.078Z,50.85
2022-12-14T17:13:24.627Z,51.03
2022-12-14T17:16:02.299Z,46.65
2022-12-14T17:18:39.412Z,52.53
2022-12-14T17:21:09.296Z,47.53
2022-12-14T17:23:40.844Z,49.53
2022-12-14T17:26:22.659Z,47.33
2022-12-14T17:28:51.360Z,49.90
2022-12-14T17:31:26.907Z,43.47
2022-12-14T17:33:57.595Z,43.53
2022-12-14T17:36:27.543Z,43.92
2022-12-14T17:41:30.492Z,48.40
2022-12-14T17:43:59.334Z,46.50
2022-12-14T17:46:26.787Z,46.05
2022-12-14T17:49:02.897Z,46.28
2022-12-14T17:51:41.820Z,46.70
2022-12-14T17:54:25.919Z,48.05
2022-12-14T17:56:56.255Z,43.60
2022-12-14T17:59:23.368Z,43.33
2022-12-14T18:01:50.731Z,41.13
2022-12-14T18:04:20.376Z,41.65
2022-12-14T18:06:47.382Z,46.30
2022-12-14T18:09:18.632Z,43.95
2022-12-14T18:12:21.032Z,46.85
2022-12-14T18:14:32.837Z,43.95
2022-12-14T18:17:06.604Z,44.58
2022-12-14T18:19:37.097Z,46.80
2022-12-14T18:22:09.304Z,42.55
2022-12-14T18:24:38.870Z,48.15
2022-12-14T18:27:08.106Z,45.72
2022-12-14T18:29:35.613Z,52.53
2022-12-14T18:32:03.567Z,44.63
2022-12-14T18:34:30.633Z,53.33
2022-12-14T18:36:58.515Z,63.10
2022-12-14T18:39:25.641Z,53.08
2022-12-14T18:41:52.641Z,57.95
2022-12-14T18:44:19.713Z,60.65
2022-12-14T18:46:49.505Z,63.53
2022-12-14T18:49:18.920Z,60.15
2022-12-14T18:51:46.005Z,62.58
2022-12-14T18:54:13.264Z,64.70
2022-12-14T18:56:42.694Z,56.72
2022-12-14T18:59:09.991Z,62.45
2022-12-14T19:01:37.237Z,56.22
2022-12-14T19:04:05.785Z,58.30
2022-12-14T19:06:48.453Z,62.58
2022-12-14T19:09:15.793Z,58.65
2022-12-14T19:11:46.004Z,57.67
2022-12-14T19:14:13.177Z,56.33
2022-12-14T19:16:42.765Z,57.47
2022-12-14T19:19:10.220Z,56.42
2022-12-14T19:21:37.365Z,55.53
2022-12-14T19:24:05.253Z,59.25
2022-12-14T19:26:32.411Z,58.13
2022-12-14T19:28:59.607Z,58.35
2022-12-14T19:31:27.305Z,57.90
2022-12-14T19:33:54.955Z,57.38
2022-12-14T19:36:22.206Z,55.28
2022-12-14T19:38:49.745Z,54.72
2022-12-14T19:41:20.669Z,57.35
2022-12-14T19:43:48.478Z,56.47
2022-12-14T19:46:17.736Z,58.28
2022-12-14T19:48:45.209Z,52.80
2022-12-14T19:51:13.416Z,55.10
2022-12-14T19:53:43.001Z,51.33
2022-12-14T19:56:14.820Z,50.97
2022-12-14T19:58:42.065Z,59.78
2022-12-14T20:01:16.579Z,61.00
2022-12-14T20:03:43.957Z,57.05
2022-12-14T20:06:11.133Z,57.00
2022-12-14T20:08:40.760Z,51.72
2022-12-14T20:11:10.489Z,46.83
2022-12-14T20:13:38.359Z,49.33
2022-12-14T20:16:06.105Z,50.83
2022-12-14T20:18:33.717Z,52.72
2022-12-14T20:21:09.850Z,56.22
2022-12-14T20:23:38.699Z,54.83
2022-12-14T20:26:11.135Z,53.13
2022-12-14T20:28:39.361Z,50.70
2022-12-14T20:31:09.895Z,51.33
2022-12-14T20:33:38.751Z,53.63
2022-12-14T20:36:07.193Z,52.92
2022-12-14T20:38:34.398Z,54.88
2022-12-14T20:41:08.336Z,56.50
2022-12-14T20:43:37.552Z,58.42
2022-12-14T20:46:06.012Z,57.45
2022-12-14T20:48:33.759Z,58.92
2022-12-14T20:51:03.846Z,56.17
2022-12-14T20:53:31.377Z,58.17
2022-12-14T20:56:04.931Z,60.67
2022-12-14T20:58:32.281Z,59.55
2022-12-14T21:01:09.558Z,56.88
2022-12-14T21:03:37.002Z,58.00
2022-12-14T21:06:04.303Z,56.95
2022-12-14T21:08:31.826Z,58.05
2022-12-14T21:11:23.242Z,56.08
2022-12-14T21:13:50.273Z,56.22
2022-12-14T21:16:17.507Z,59.20
2022-12-14T21:18:44.665Z,62.63
2022-12-14T21:21:11.885Z,67.78
2022-12-14T21:23:41.440Z,70.80
2022-12-14T21:26:08.591Z,64.25
2022-12-14T21:28:35.681Z,60.20
2022-12-14T21:31:08.529Z,58.25
2022-12-14T21:33:35.884Z,57.25
2022-12-14T21:36:10.138Z,61.72
2022-12-14T21:38:40.207Z,69.82
2022-12-14T21:41:26.467Z,72.57
2022-12-14T21:43:56.076Z,62.20
2022-12-14T21:46:27.874Z,68.80
2022-12-14T21:48:58.624Z,67.97
2022-12-14T21:51:25.700Z,65.75
2022-12-14T21:54:01.434Z,63.88
2022-12-14T21:56:56.143Z,60.45
2022-12-14T21:59:29.050Z,63.15
2022-12-14T22:01:59.102Z,59.85
2022-12-14T22:04:27.691Z,61.05
2022-12-14T22:06:55.290Z,64.05
2022-12-14T22:09:25.348Z,63.33
2022-12-14T22:11:53.077Z,63.28
2022-12-14T22:14:24.411Z,62.45
2022-12-14T22:16:52.960Z,60.50
2022-12-14T22:19:23.302Z,62.50
2022-12-14T22:21:51.994Z,62.40
2022-12-14T22:24:21.362Z,62.85
2022-12-14T22:26:50.978Z,59.20
2022-12-14T22:29:19.798Z,57.75
2022-12-14T22:31:47.026Z,55.50
2022-12-14T22:34:23.481Z,55.80
2022-12-14T22:36:52.652Z,60.45
2022-12-14T22:39:22.216Z,54.42
2022-12-14T22:41:49.701Z,55.33
2022-12-14T22:44:19.362Z,53.72
2022-12-14T22:46:46.422Z,55.10
2022-12-14T22:49:19.149Z,51.63
2022-12-14T22:51:46.848Z,57.22
2022-12-14T22:54:26.990Z,52.15
2022-12-14T22:57:07.548Z,50.00
2022-12-14T22:59:36.384Z,48.40
2022-12-14T23:02:04.150Z,48.33
2022-12-14T23:04:31.865Z,49.33
2022-12-14T23:06:58.954Z,47.47
2022-12-14T23:09:44.864Z,44.97
2022-12-14T23:12:30.788Z,47.05
2022-12-14T23:15:16.614Z,46.70
2022-12-14T23:18:02.445Z,48.45
2022-12-14T23:20:48.571Z,48.92
2022-12-14T23:23:34.323Z,47.13
2022-12-14T23:26:22.843Z,51.83
2022-12-14T23:29:08.871Z,45.88
2022-12-14T23:31:54.650Z,46.38
2022-12-14T23:34:40.432Z,45.33
2022-12-14T23:37:26.305Z,44.47
2022-12-14T23:40:14.175Z,45.67
2022-12-14T23:43:01.358Z,47.30
2022-12-14T23:45:49.858Z,46.00
2022-12-14T23:48:35.738Z,45.83
2022-12-14T23:51:21.558Z,44.63
2022-12-14T23:54:07.723Z,44.10
2022-12-14T23:56:53.790Z,44.72
2022-12-14T23:59:39.610Z,44.25
